Hrossey — VSTY6 — position and weather

sailwx.info

Track history (hours):
 
Tides and Currents Weather Stations Pressure Air Temp Water Temp Dewpoint Dewpoint Depression Visibility Wind Speed Wind Dir Waves Ship Positions

Hrossey

Operator: NorthLink Orkey & Shetland Ferries Ltd

Last reported at 2019-Jan-23 19:00 UTC. Time now 2019-Jan-23 19:06 UTC.
Position N 57°09' W 002°05'.

Length 125 m; draft 5.4 m.

Type: Ship. MMSI: 235448000.

Date/timePositionNaut miles runAvg speedWind from/ knotsBaromVisibWave heightAir tempDewpointWater temp
2019-Jan-23 19:00N 57°09' W 002°05'0 0.2
2019-Jan-23 18:30N 57°09' W 002°05'0 0.0
2019-Jan-23 18:00N 57°09' W 002°05'0 0.0
2019-Jan-23 17:30N 57°09' W 002°05'0 0.0
2019-Jan-23 17:00N 57°09' W 002°05'0 0.0
2019-Jan-23 16:30N 57°09' W 002°05'0 0.0
2019-Jan-23 16:00N 57°09' W 002°05'0 0.0
2019-Jan-23 15:30N 57°09' W 002°05'0 0.0
2019-Jan-23 15:00N 57°09' W 002°05'0 0.0
2019-Jan-23 14:30N 57°09' W 002°05'0 0.0
2019-Jan-23 14:00N 57°09' W 002°05'0 0.0
2019-Jan-23 13:30N 57°09' W 002°05'0 0.0
2019-Jan-23 13:00N 57°09' W 002°05'0 0.0
2019-Jan-23 12:30N 57°09' W 002°05'0 0.0
2019-Jan-23 12:00N 57°09' W 002°05'0 0.0
2019-Jan-23 11:30N 57°09' W 002°05'0 0.0
2019-Jan-23 11:00N 57°09' W 002°05'0 0.0
2019-Jan-23 10:30N 57°09' W 002°05'0 0.0
2019-Jan-23 10:00N 57°09' W 002°05'0 0.0
2019-Jan-23 09:30N 57°09' W 002°05'0 0.0
2019-Jan-23 09:00N 57°09' W 002°05'0 0.0
2019-Jan-23 08:30N 57°09' W 002°05'0 0.0
2019-Jan-23 08:00N 57°09' W 002°05'0 0.0
2019-Jan-23 07:30N 57°09' W 002°05'0 0.0
2019-Jan-23 07:00N 57°09' W 002°05'0 1.0
2019-Jan-23 06:30N 57°09' W 002°05'4 7.4
2019-Jan-23 06:00N 57°11' W 001°59'815.6
2019-Jan-23 05:30N 57°18' W 001°51'1513.6
2019-Jan-23 04:26N 57°30' W 001°36'7 0.2
2019-Jan-21 22:47N 57°37' W 001°36'518.9
2019-Jan-21 22:30N 57°32' W 001°37'1318.9
2019-Jan-21 21:51N 57°20' W 001°45'720.0
2019-Jan-21 21:30N 57°14' W 001°53'917.4
2019-Jan-21 21:01N 57°09' W 002°04'1 1.4
2019-Jan-21 20:29N 57°09' W 002°05'0 0.0
2019-Jan-21 19:59N 57°09' W 002°05'0 0.0
2019-Jan-21 19:29N 57°09' W 002°05'0 0.0
2019-Jan-21 18:59N 57°09' W 002°05'0 0.0
2019-Jan-21 18:29N 57°09' W 002°05'0 0.0
2019-Jan-21 17:59N 57°09' W 002°05'0 0.0
2019-Jan-21 17:29N 57°09' W 002°05'0 0.0
2019-Jan-21 16:59N 57°09' W 002°05'0 0.0
2019-Jan-21 16:29N 57°09' W 002°05'0 0.0
2019-Jan-21 15:59N 57°09' W 002°05'0 0.0
2019-Jan-21 15:29N 57°09' W 002°05'0 0.0
2019-Jan-21 14:59N 57°09' W 002°05'0 0.0
2019-Jan-21 14:29N 57°09' W 002°05'0 0.0
2019-Jan-21 13:59N 57°09' W 002°05'0 0.0
2019-Jan-21 13:29N 57°09' W 002°05'0 0.0
2019-Jan-21 12:59N 57°09' W 002°05'0 0.0
2019-Jan-21 12:29N 57°09' W 002°05'0 0.0
2019-Jan-21 11:59N 57°09' W 002°05'0 0.0
2019-Jan-21 11:29N 57°09' W 002°05'0 0.0
2019-Jan-21 10:59N 57°09' W 002°05'0 0.0
2019-Jan-21 10:29N 57°09' W 002°05'0 0.0
2019-Jan-21 09:59N 57°09' W 002°05'0 0.0
2019-Jan-21 09:29N 57°09' W 002°05'0 0.0
2019-Jan-21 08:59N 57°09' W 002°05'0 0.0
2019-Jan-21 08:29N 57°09' W 002°05'0 0.0
2019-Jan-21 07:59N 57°09' W 002°05'0 0.0
2019-Jan-21 07:29N 57°09' W 002°05'0 0.0
2019-Jan-21 06:59N 57°09' W 002°05'0 0.9
2019-Jan-21 06:31N 57°09' W 002°05'3 6.9
2019-Jan-21 06:00N 57°11' W 001°60'714.0
2019-Jan-21 05:30N 57°16' W 001°52'1414.1
2019-Jan-21 04:31N 57°28' W 001°38'011.5
2019-Jan-21 04:30N 57°28' W 001°38'611.8
2019-Jan-21 04:00N 57°34' W 001°38'6 0.2
2019-Jan-19 18:22N 57°38' W 001°46'924.0
2019-Jan-19 18:01N 57°29' W 001°43'1224.2
2019-Jan-19 17:30N 57°18' W 001°51'1122.6
2019-Jan-19 17:00N 57°09' W 002°04'1 1.9
2019-Jan-19 16:28N 57°09' W 002°05'0 0.0
2019-Jan-19 15:59N 57°09' W 002°05'0 0.0
2019-Jan-19 15:29N 57°09' W 002°05'0 0.0
2019-Jan-19 14:58N 57°09' W 002°05'0 0.0
2019-Jan-19 14:28N 57°09' W 002°05'0 0.0
2019-Jan-19 13:58N 57°09' W 002°05'0 0.0
2019-Jan-19 13:29N 57°09' W 002°05'0 0.0
2019-Jan-19 12:58N 57°09' W 002°05'0 0.0
2019-Jan-19 12:28N 57°09' W 002°05'0 0.0
2019-Jan-19 11:58N 57°09' W 002°05'0 0.0
2019-Jan-19 11:29N 57°09' W 002°05'0 0.0
2019-Jan-19 10:58N 57°09' W 002°05'0 0.0
2019-Jan-19 10:28N 57°09' W 002°05'0 0.0
2019-Jan-19 09:58N 57°09' W 002°05'0 0.0
2019-Jan-19 09:29N 57°09' W 002°05'0 0.0
2019-Jan-19 08:59N 57°09' W 002°05'0 0.0
2019-Jan-19 08:29N 57°09' W 002°05'0 0.0
2019-Jan-19 07:58N 57°09' W 002°05'0 0.0
2019-Jan-19 07:29N 57°09' W 002°05'0 0.0
2019-Jan-19 06:58N 57°09' W 002°05'1 1.2
2019-Jan-19 06:31N 57°08' W 002°04'612.5
2019-Jan-19 06:01N 57°13' W 001°56'1517.5
2019-Jan-19 05:09N 57°26' W 001°42'317.1
2019-Jan-19 05:00N 57°28' W 001°41'10 0.3
2019-Jan-17 18:46N 57°38' W 001°45'620.8
2019-Jan-17 18:30N 57°33' W 001°44'1121.1
2019-Jan-17 18:00N 57°22' W 001°47'1122.8
2019-Jan-17 17:31N 57°12' W 001°57'611.6
2019-Jan-17 17:00N 57°09' W 002°05'0 0.0
2019-Jan-17 16:29N 57°09' W 002°05'0 0.0
2019-Jan-17 15:59N 57°09' W 002°05'0 0.0
2019-Jan-17 15:29N 57°09' W 002°05'0 0.0
2019-Jan-17 14:59N 57°09' W 002°05'0 0.0
2019-Jan-17 14:29N 57°09' W 002°05'0 0.0
2019-Jan-17 13:59N 57°09' W 002°05'0 0.0
2019-Jan-17 13:29N 57°09' W 002°05'0 0.0
2019-Jan-17 12:59N 57°09' W 002°05'0 0.0
2019-Jan-17 12:29N 57°09' W 002°05'0 0.0
2019-Jan-17 11:59N 57°09' W 002°05'0 0.0
2019-Jan-17 11:29N 57°09' W 002°05'0 0.0
2019-Jan-17 10:59N 57°09' W 002°05'0 0.0
2019-Jan-17 10:29N 57°09' W 002°05'0 0.0
2019-Jan-17 09:59N 57°09' W 002°05'0 0.0
2019-Jan-17 09:29N 57°09' W 002°05'0 0.0
2019-Jan-17 08:59N 57°09' W 002°05'0 0.0
2019-Jan-17 08:29N 57°09' W 002°05'0 0.0
2019-Jan-17 07:59N 57°09' W 002°05'0 0.0
2019-Jan-17 07:29N 57°09' W 002°05'0 0.0
2019-Jan-17 06:59N 57°09' W 002°05'0 0.9
2019-Jan-17 06:30N 57°09' W 002°05'5 9.5
2019-Jan-17 06:00N 57°12' W 001°58'712.5
2019-Jan-17 05:27N 57°17' W 001°50'913.3
2019-Jan-17 04:46N 57°25' W 001°42'415.0
2019-Jan-17 04:30N 57°29' W 001°41'815.4
2019-Jan-17 04:00N 57°37' W 001°42'0 0.0
2019-Jan-15 18:25N 57°36' W 001°42'921.4
2019-Jan-15 18:01N 57°27' W 001°42'1122.3
2019-Jan-15 17:30N 57°18' W 001°52'1121.1
2019-Jan-15 17:00N 57°09' W 002°03'1 2.5
2019-Jan-15 16:29N 57°09' W 002°05'0 0.0
2019-Jan-15 15:59N 57°09' W 002°05'0 0.0
2019-Jan-15 15:29N 57°09' W 002°05'0 0.0
2019-Jan-15 14:59N 57°09' W 002°05'0 0.0
2019-Jan-15 14:29N 57°09' W 002°05'0 0.0
2019-Jan-15 13:59N 57°09' W 002°05'0 0.0
2019-Jan-15 13:29N 57°09' W 002°05'0 0.0
2019-Jan-15 12:59N 57°09' W 002°05'0 0.0
2019-Jan-15 12:29N 57°09' W 002°05'0 0.0
2019-Jan-15 11:59N 57°09' W 002°05'0 0.0
2019-Jan-15 11:29N 57°09' W 002°05'0 0.0
2019-Jan-15 10:59N 57°09' W 002°05'0 0.0
2019-Jan-15 10:29N 57°09' W 002°05'0 0.0
2019-Jan-15 09:59N 57°09' W 002°05'0 0.0
2019-Jan-15 09:29N 57°09' W 002°05'0 0.0
2019-Jan-15 08:59N 57°09' W 002°05'0 0.0
2019-Jan-15 08:29N 57°09' W 002°05'0 0.0
2019-Jan-15 07:59N 57°09' W 002°05'0 0.0
2019-Jan-15 07:29N 57°09' W 002°05'0 0.0
2019-Jan-15 07:00N 57°09' W 002°05'1 1.3
2019-Jan-15 06:30N 57°08' W 002°04'714.0
2019-Jan-15 06:00N 57°14' W 001°55'1115.8
2019-Jan-15 05:18N 57°23' W 001°45'515.8
2019-Jan-15 04:59N 57°27' W 001°40'816.0
2019-Jan-15 04:30N 57°35' W 001°40'  
Track history (hours):
 
Tides and Currents Weather Stations Pressure Air Temp Water Temp Dewpoint Dewpoint Depression Visibility Wind Speed Wind Dir Waves Ship Positions

Hrossey

Operator: NorthLink Orkey & Shetland Ferries Ltd

Last reported at 2019-Jan-23 19:00 UTC. Time now 2019-Jan-23 19:06 UTC.
Position N 57°09' W 002°05'.

Length 125 m; draft 5.4 m.

Type: Ship. MMSI: 235448000.

Date/timePositionNaut miles runAvg speedWind from/ knotsBaromVisibWave heightAir tempDewpointWater temp
2019-Jan-23 19:00N 57°09' W 002°05'0 0.2
2019-Jan-23 18:30N 57°09' W 002°05'0 0.0
2019-Jan-23 18:00N 57°09' W 002°05'0 0.0
2019-Jan-23 17:30N 57°09' W 002°05'0 0.0
2019-Jan-23 17:00N 57°09' W 002°05'0 0.0
2019-Jan-23 16:30N 57°09' W 002°05'0 0.0
2019-Jan-23 16:00N 57°09' W 002°05'0 0.0
2019-Jan-23 15:30N 57°09' W 002°05'0 0.0
2019-Jan-23 15:00N 57°09' W 002°05'0 0.0
2019-Jan-23 14:30N 57°09' W 002°05'0 0.0
2019-Jan-23 14:00N 57°09' W 002°05'0 0.0
2019-Jan-23 13:30N 57°09' W 002°05'0 0.0
2019-Jan-23 13:00N 57°09' W 002°05'0 0.0
2019-Jan-23 12:30N 57°09' W 002°05'0 0.0
2019-Jan-23 12:00N 57°09' W 002°05'0 0.0
2019-Jan-23 11:30N 57°09' W 002°05'0 0.0
2019-Jan-23 11:00N 57°09' W 002°05'0 0.0
2019-Jan-23 10:30N 57°09' W 002°05'0 0.0
2019-Jan-23 10:00N 57°09' W 002°05'0 0.0
2019-Jan-23 09:30N 57°09' W 002°05'0 0.0
2019-Jan-23 09:00N 57°09' W 002°05'0 0.0
2019-Jan-23 08:30N 57°09' W 002°05'0 0.0
2019-Jan-23 08:00N 57°09' W 002°05'0 0.0
2019-Jan-23 07:30N 57°09' W 002°05'0 0.0
2019-Jan-23 07:00N 57°09' W 002°05'0 1.0
2019-Jan-23 06:30N 57°09' W 002°05'4 7.4
2019-Jan-23 06:00N 57°11' W 001°59'815.6
2019-Jan-23 05:30N 57°18' W 001°51'1513.6
2019-Jan-23 04:26N 57°30' W 001°36'7 0.2
2019-Jan-21 22:47N 57°37' W 001°36'518.9
2019-Jan-21 22:30N 57°32' W 001°37'1318.9
2019-Jan-21 21:51N 57°20' W 001°45'720.0
2019-Jan-21 21:30N 57°14' W 001°53'917.4
2019-Jan-21 21:01N 57°09' W 002°04'1 1.4
2019-Jan-21 20:29N 57°09' W 002°05'0 0.0
2019-Jan-21 19:59N 57°09' W 002°05'0 0.0
2019-Jan-21 19:29N 57°09' W 002°05'0 0.0
2019-Jan-21 18:59N 57°09' W 002°05'0 0.0
2019-Jan-21 18:29N 57°09' W 002°05'0 0.0
2019-Jan-21 17:59N 57°09' W 002°05'0 0.0
2019-Jan-21 17:29N 57°09' W 002°05'0 0.0
2019-Jan-21 16:59N 57°09' W 002°05'0 0.0
2019-Jan-21 16:29N 57°09' W 002°05'0 0.0
2019-Jan-21 15:59N 57°09' W 002°05'0 0.0
2019-Jan-21 15:29N 57°09' W 002°05'0 0.0
2019-Jan-21 14:59N 57°09' W 002°05'0 0.0
2019-Jan-21 14:29N 57°09' W 002°05'0 0.0
2019-Jan-21 13:59N 57°09' W 002°05'0 0.0
2019-Jan-21 13:29N 57°09' W 002°05'0 0.0
2019-Jan-21 12:59N 57°09' W 002°05'0 0.0
2019-Jan-21 12:29N 57°09' W 002°05'0 0.0
2019-Jan-21 11:59N 57°09' W 002°05'0 0.0
2019-Jan-21 11:29N 57°09' W 002°05'0 0.0
2019-Jan-21 10:59N 57°09' W 002°05'0 0.0
2019-Jan-21 10:29N 57°09' W 002°05'0 0.0
2019-Jan-21 09:59N 57°09' W 002°05'0 0.0
2019-Jan-21 09:29N 57°09' W 002°05'0 0.0
2019-Jan-21 08:59N 57°09' W 002°05'0 0.0
2019-Jan-21 08:29N 57°09' W 002°05'0 0.0
2019-Jan-21 07:59N 57°09' W 002°05'0 0.0
2019-Jan-21 07:29N 57°09' W 002°05'0 0.0
2019-Jan-21 06:59N 57°09' W 002°05'0 0.9
2019-Jan-21 06:31N 57°09' W 002°05'3 6.9
2019-Jan-21 06:00N 57°11' W 001°60'714.0
2019-Jan-21 05:30N 57°16' W 001°52'1414.1
2019-Jan-21 04:31N 57°28' W 001°38'011.5
2019-Jan-21 04:30N 57°28' W 001°38'611.8
2019-Jan-21 04:00N 57°34' W 001°38'6 0.2
2019-Jan-19 18:22N 57°38' W 001°46'924.0
2019-Jan-19 18:01N 57°29' W 001°43'1224.2
2019-Jan-19 17:30N 57°18' W 001°51'1122.6
2019-Jan-19 17:00N 57°09' W 002°04'1 1.9
2019-Jan-19 16:28N 57°09' W 002°05'0 0.0
2019-Jan-19 15:59N 57°09' W 002°05'0 0.0
2019-Jan-19 15:29N 57°09' W 002°05'0 0.0
2019-Jan-19 14:58N 57°09' W 002°05'0 0.0
2019-Jan-19 14:28N 57°09' W 002°05'0 0.0
2019-Jan-19 13:58N 57°09' W 002°05'0 0.0
2019-Jan-19 13:29N 57°09' W 002°05'0 0.0
2019-Jan-19 12:58N 57°09' W 002°05'0 0.0
2019-Jan-19 12:28N 57°09' W 002°05'0 0.0
2019-Jan-19 11:58N 57°09' W 002°05'0 0.0
2019-Jan-19 11:29N 57°09' W 002°05'0 0.0
2019-Jan-19 10:58N 57°09' W 002°05'0 0.0
2019-Jan-19 10:28N 57°09' W 002°05'0 0.0
2019-Jan-19 09:58N 57°09' W 002°05'0 0.0
2019-Jan-19 09:29N 57°09' W 002°05'0 0.0
2019-Jan-19 08:59N 57°09' W 002°05'0 0.0
2019-Jan-19 08:29N 57°09' W 002°05'0 0.0
2019-Jan-19 07:58N 57°09' W 002°05'0 0.0
2019-Jan-19 07:29N 57°09' W 002°05'0 0.0
2019-Jan-19 06:58N 57°09' W 002°05'1 1.2
2019-Jan-19 06:31N 57°08' W 002°04'612.5
2019-Jan-19 06:01N 57°13' W 001°56'1517.5
2019-Jan-19 05:09N 57°26' W 001°42'317.1
2019-Jan-19 05:00N 57°28' W 001°41'10 0.3
2019-Jan-17 18:46N 57°38' W 001°45'620.8
2019-Jan-17 18:30N 57°33' W 001°44'1121.1
2019-Jan-17 18:00N 57°22' W 001°47'1122.8
2019-Jan-17 17:31N 57°12' W 001°57'611.6
2019-Jan-17 17:00N 57°09' W 002°05'0 0.0
2019-Jan-17 16:29N 57°09' W 002°05'0 0.0
2019-Jan-17 15:59N 57°09' W 002°05'0 0.0
2019-Jan-17 15:29N 57°09' W 002°05'0 0.0
2019-Jan-17 14:59N 57°09' W 002°05'0 0.0
2019-Jan-17 14:29N 57°09' W 002°05'0 0.0
2019-Jan-17 13:59N 57°09' W 002°05'0 0.0
2019-Jan-17 13:29N 57°09' W 002°05'0 0.0
2019-Jan-17 12:59N 57°09' W 002°05'0 0.0
2019-Jan-17 12:29N 57°09' W 002°05'0 0.0
2019-Jan-17 11:59N 57°09' W 002°05'0 0.0
2019-Jan-17 11:29N 57°09' W 002°05'0 0.0
2019-Jan-17 10:59N 57°09' W 002°05'0 0.0
2019-Jan-17 10:29N 57°09' W 002°05'0 0.0
2019-Jan-17 09:59N 57°09' W 002°05'0 0.0
2019-Jan-17 09:29N 57°09' W 002°05'0 0.0
2019-Jan-17 08:59N 57°09' W 002°05'0 0.0
2019-Jan-17 08:29N 57°09' W 002°05'0 0.0
2019-Jan-17 07:59N 57°09' W 002°05'0 0.0
2019-Jan-17 07:29N 57°09' W 002°05'0 0.0
2019-Jan-17 06:59N 57°09' W 002°05'0 0.9
2019-Jan-17 06:30N 57°09' W 002°05'5 9.5
2019-Jan-17 06:00N 57°12' W 001°58'712.5
2019-Jan-17 05:27N 57°17' W 001°50'913.3
2019-Jan-17 04:46N 57°25' W 001°42'415.0
2019-Jan-17 04:30N 57°29' W 001°41'815.4
2019-Jan-17 04:00N 57°37' W 001°42'0 0.0
2019-Jan-15 18:25N 57°36' W 001°42'921.4
2019-Jan-15 18:01N 57°27' W 001°42'1122.3
2019-Jan-15 17:30N 57°18' W 001°52'1121.1
2019-Jan-15 17:00N 57°09' W 002°03'1 2.5
2019-Jan-15 16:29N 57°09' W 002°05'0 0.0
2019-Jan-15 15:59N 57°09' W 002°05'0 0.0
2019-Jan-15 15:29N 57°09' W 002°05'0 0.0
2019-Jan-15 14:59N 57°09' W 002°05'0 0.0
2019-Jan-15 14:29N 57°09' W 002°05'0 0.0
2019-Jan-15 13:59N 57°09' W 002°05'0 0.0
2019-Jan-15 13:29N 57°09' W 002°05'0 0.0
2019-Jan-15 12:59N 57°09' W 002°05'0 0.0
2019-Jan-15 12:29N 57°09' W 002°05'0 0.0
2019-Jan-15 11:59N 57°09' W 002°05'0 0.0
2019-Jan-15 11:29N 57°09' W 002°05'0 0.0
2019-Jan-15 10:59N 57°09' W 002°05'0 0.0
2019-Jan-15 10:29N 57°09' W 002°05'0 0.0
2019-Jan-15 09:59N 57°09' W 002°05'0 0.0
2019-Jan-15 09:29N 57°09' W 002°05'0 0.0
2019-Jan-15 08:59N 57°09' W 002°05'0 0.0
2019-Jan-15 08:29N 57°09' W 002°05'0 0.0
2019-Jan-15 07:59N 57°09' W 002°05'0 0.0
2019-Jan-15 07:29N 57°09' W 002°05'0 0.0
2019-Jan-15 07:00N 57°09' W 002°05'1 1.3
2019-Jan-15 06:30N 57°08' W 002°04'714.0
2019-Jan-15 06:00N 57°14' W 001°55'1115.8
2019-Jan-15 05:18N 57°23' W 001°45'515.8
2019-Jan-15 04:59N 57°27' W 001°40'816.0
2019-Jan-15 04:30N 57°35' W 001°40'  

Dump ship's entire track history